sensor_id;sensor_type;location;lat;lon;timestamp;temperature;humidity
10431;DHT22;5262;59.958;17.726;2023-06-22T00:01:55;17.90;99.90
10431;DHT22;5262;59.958;17.726;2023-06-22T00:04:21;17.90;99.90
10431;DHT22;5262;59.958;17.726;2023-06-22T00:06:46;18.00;99.90
10431;DHT22;5262;59.958;17.726;2023-06-22T00:09:12;18.00;99.90
10431;DHT22;5262;59.958;17.726;2023-06-22T00:11:38;17.90;99.90
10431;DHT22;5262;59.958;17.726;2023-06-22T00:14:04;18.00;99.90
10431;DHT22;5262;59.958;17.726;2023-06-22T00:16:32;17.90;99.90
10431;DHT22;5262;59.958;17.726;2023-06-22T00:18:58;17.90;99.90
10431;DHT22;5262;59.958;17.726;2023-06-22T00:21:26;18.00;99.90
10431;DHT22;5262;59.958;17.726;2023-06-22T00:23:52;18.00;99.90
10431;DHT22;5262;59.958;17.726;2023-06-22T00:26:18;18.00;99.90
10431;DHT22;5262;59.958;17.726;2023-06-22T00:28:44;18.00;99.90
10431;DHT22;5262;59.958;17.726;2023-06-22T00:31:10;18.10;99.90
10431;DHT22;5262;59.958;17.726;2023-06-22T00:33:35;18.10;99.90
10431;DHT22;5262;59.958;17.726;2023-06-22T00:36:01;18.10;99.90
10431;DHT22;5262;59.958;17.726;2023-06-22T00:38:28;18.10;99.90
10431;DHT22;5262;59.958;17.726;2023-06-22T00:40:54;18.10;99.90
10431;DHT22;5262;59.958;17.726;2023-06-22T00:43:20;18.10;99.90
10431;DHT22;5262;59.958;17.726;2023-06-22T00:45:46;18.00;99.90
10431;DHT22;5262;59.958;17.726;2023-06-22T00:48:12;18.00;99.90
10431;DHT22;5262;59.958;17.726;2023-06-22T00:50:39;18.00;99.90
10431;DHT22;5262;59.958;17.726;2023-06-22T00:53:07;18.00;99.90
10431;DHT22;5262;59.958;17.726;2023-06-22T00:55:46;18.00;99.90
10431;DHT22;5262;59.958;17.726;2023-06-22T00:58:17;18.00;99.90
10431;DHT22;5262;59.958;17.726;2023-06-22T01:00:47;18.10;99.90
10431;DHT22;5262;59.958;17.726;2023-06-22T01:03:13;18.10;99.90
10431;DHT22;5262;59.958;17.726;2023-06-22T01:05:40;18.00;99.90
10431;DHT22;5262;59.958;17.726;2023-06-22T01:11:10;18.10;99.90
10431;DHT22;5262;59.958;17.726;2023-06-22T01:13:50;18.10;99.90
10431;DHT22;5262;59.958;17.726;2023-06-22T01:17:04;18.10;99.90
10431;DHT22;5262;59.958;17.726;2023-06-22T01:22:01;18.10;99.90
10431;DHT22;5262;59.958;17.726;2023-06-22T01:24:40;18.10;99.90
10431;DHT22;5262;59.958;17.726;2023-06-22T01:27:26;18.10;99.90
10431;DHT22;5262;59.958;17.726;2023-06-22T01:29:56;18.10;99.90
10431;DHT22;5262;59.958;17.726;2023-06-22T01:32:31;18.10;99.90
10431;DHT22;5262;59.958;17.726;2023-06-22T01:35:00;18.10;99.90
10431;DHT22;5262;59.958;17.726;2023-06-22T01:37:27;18.10;99.90
10431;DHT22;5262;59.958;17.726;2023-06-22T01:39:54;18.10;99.90
10431;DHT22;5262;59.958;17.726;2023-06-22T01:42:21;18.10;99.90
10431;DHT22;5262;59.958;17.726;2023-06-22T01:44:47;18.10;99.90
10431;DHT22;5262;59.958;17.726;2023-06-22T01:47:13;18.10;99.90
10431;DHT22;5262;59.958;17.726;2023-06-22T01:49:40;18.10;99.90
10431;DHT22;5262;59.958;17.726;2023-06-22T01:52:07;18.10;99.90
10431;DHT22;5262;59.958;17.726;2023-06-22T01:54:33;18.10;99.90
10431;DHT22;5262;59.958;17.726;2023-06-22T01:56:58;18.10;99.90
10431;DHT22;5262;59.958;17.726;2023-06-22T02:02:21;18.10;99.90
10431;DHT22;5262;59.958;17.726;2023-06-22T02:04:58;18.00;99.90
10431;DHT22;5262;59.958;17.726;2023-06-22T02:07:28;18.10;99.90
10431;DHT22;5262;59.958;17.726;2023-06-22T02:09:56;18.10;99.90
10431;DHT22;5262;59.958;17.726;2023-06-22T02:12:25;18.00;99.90
10431;DHT22;5262;59.958;17.726;2023-06-22T02:14:51;18.00;99.90
10431;DHT22;5262;59.958;17.726;2023-06-22T02:17:18;18.00;99.90
10431;DHT22;5262;59.958;17.726;2023-06-22T02:19:44;18.10;99.90
10431;DHT22;5262;59.958;17.726;2023-06-22T02:22:09;18.10;99.90
10431;DHT22;5262;59.958;17.726;2023-06-22T02:24:35;18.00;99.90
10431;DHT22;5262;59.958;17.726;2023-06-22T02:27:01;18.10;99.90
10431;DHT22;5262;59.958;17.726;2023-06-22T02:29:28;18.00;99.90
10431;DHT22;5262;59.958;17.726;2023-06-22T02:31:54;18.00;99.90
10431;DHT22;5262;59.958;17.726;2023-06-22T02:34:21;18.10;99.90
10431;DHT22;5262;59.958;17.726;2023-06-22T02:36:48;18.00;99.90
10431;DHT22;5262;59.958;17.726;2023-06-22T02:39:20;18.00;99.90
10431;DHT22;5262;59.958;17.726;2023-06-22T02:41:46;18.00;99.90
10431;DHT22;5262;59.958;17.726;2023-06-22T02:44:11;18.00;99.90
10431;DHT22;5262;59.958;17.726;2023-06-22T02:46:37;18.00;99.90
10431;DHT22;5262;59.958;17.726;2023-06-22T02:49:02;18.10;99.90
10431;DHT22;5262;59.958;17.726;2023-06-22T02:51:28;18.10;99.90
10431;DHT22;5262;59.958;17.726;2023-06-22T02:53:54;18.10;99.90
10431;DHT22;5262;59.958;17.726;2023-06-22T02:56:23;18.20;99.90
10431;DHT22;5262;59.958;17.726;2023-06-22T02:58:51;18.20;99.90
10431;DHT22;5262;59.958;17.726;2023-06-22T03:01:16;18.20;99.90
10431;DHT22;5262;59.958;17.726;2023-06-22T03:03:42;18.20;99.90
10431;DHT22;5262;59.958;17.726;2023-06-22T03:06:07;18.10;99.90
10431;DHT22;5262;59.958;17.726;2023-06-22T03:08:33;18.10;99.90
10431;DHT22;5262;59.958;17.726;2023-06-22T03:10:59;18.10;99.90
10431;DHT22;5262;59.958;17.726;2023-06-22T03:13:24;18.10;99.90
10431;DHT22;5262;59.958;17.726;2023-06-22T03:15:50;18.10;99.90
10431;DHT22;5262;59.958;17.726;2023-06-22T03:18:15;18.10;99.90
10431;DHT22;5262;59.958;17.726;2023-06-22T03:20:41;18.10;99.90
10431;DHT22;5262;59.958;17.726;2023-06-22T03:23:07;18.10;99.90
10431;DHT22;5262;59.958;17.726;2023-06-22T03:25:32;18.10;99.90
10431;DHT22;5262;59.958;17.726;2023-06-22T03:27:59;18.20;99.90
10431;DHT22;5262;59.958;17.726;2023-06-22T03:30:26;18.20;99.90
10431;DHT22;5262;59.958;17.726;2023-06-22T03:32:51;18.20;99.90
10431;DHT22;5262;59.958;17.726;2023-06-22T03:35:17;18.20;99.90
10431;DHT22;5262;59.958;17.726;2023-06-22T03:37:42;18.30;99.90
10431;DHT22;5262;59.958;17.726;2023-06-22T03:40:08;18.30;99.90
10431;DHT22;5262;59.958;17.726;2023-06-22T03:42:34;18.30;99.90
10431;DHT22;5262;59.958;17.726;2023-06-22T03:45:03;18.40;99.90
10431;DHT22;5262;59.958;17.726;2023-06-22T03:47:29;18.30;99.90
10431;DHT22;5262;59.958;17.726;2023-06-22T03:49:55;18.20;99.90
10431;DHT22;5262;59.958;17.726;2023-06-22T03:52:21;18.30;99.90
10431;DHT22;5262;59.958;17.726;2023-06-22T03:54:48;18.30;99.90
10431;DHT22;5262;59.958;17.726;2023-06-22T03:57:13;18.20;99.90
10431;DHT22;5262;59.958;17.726;2023-06-22T03:59:39;18.30;99.90
10431;DHT22;5262;59.958;17.726;2023-06-22T04:02:04;18.30;99.90
10431;DHT22;5262;59.958;17.726;2023-06-22T04:04:30;18.40;99.90
10431;DHT22;5262;59.958;17.726;2023-06-22T04:06:56;18.50;99.90
10431;DHT22;5262;59.958;17.726;2023-06-22T04:09:21;18.60;99.90
10431;DHT22;5262;59.958;17.726;2023-06-22T04:11:47;18.60;99.90
10431;DHT22;5262;59.958;17.726;2023-06-22T04:14:13;18.70;99.90
10431;DHT22;5262;59.958;17.726;2023-06-22T04:16:38;18.70;99.90
10431;DHT22;5262;59.958;17.726;2023-06-22T04:19:04;18.80;99.90
10431;DHT22;5262;59.958;17.726;2023-06-22T04:21:30;18.80;99.90
10431;DHT22;5262;59.958;17.726;2023-06-22T04:23:55;18.90;99.90
10431;DHT22;5262;59.958;17.726;2023-06-22T04:26:21;18.90;99.90
10431;DHT22;5262;59.958;17.726;2023-06-22T04:28:47;18.90;99.90
10431;DHT22;5262;59.958;17.726;2023-06-22T04:31:17;19.00;99.90
10431;DHT22;5262;59.958;17.726;2023-06-22T04:33:46;18.90;99.90
10431;DHT22;5262;59.958;17.726;2023-06-22T04:36:12;18.90;99.90
10431;DHT22;5262;59.958;17.726;2023-06-22T04:38:40;19.00;99.90
10431;DHT22;5262;59.958;17.726;2023-06-22T04:41:07;19.00;99.90
10431;DHT22;5262;59.958;17.726;2023-06-22T04:43:34;19.00;99.90
10431;DHT22;5262;59.958;17.726;2023-06-22T04:45:59;18.90;99.90
10431;DHT22;5262;59.958;17.726;2023-06-22T04:48:29;19.00;99.90
10431;DHT22;5262;59.958;17.726;2023-06-22T04:51:02;19.00;99.90
10431;DHT22;5262;59.958;17.726;2023-06-22T04:53:30;19.00;99.90
10431;DHT22;5262;59.958;17.726;2023-06-22T04:55:56;19.10;99.90
10431;DHT22;5262;59.958;17.726;2023-06-22T04:58:22;19.20;99.90
10431;DHT22;5262;59.958;17.726;2023-06-22T05:00:48;19.30;99.90
10431;DHT22;5262;59.958;17.726;2023-06-22T05:03:16;19.50;99.90
10431;DHT22;5262;59.958;17.726;2023-06-22T05:05:43;19.50;99.90
10431;DHT22;5262;59.958;17.726;2023-06-22T05:08:09;19.60;99.90
10431;DHT22;5262;59.958;17.726;2023-06-22T05:10:35;19.50;99.90
10431;DHT22;5262;59.958;17.726;2023-06-22T05:13:01;19.70;99.90
10431;DHT22;5262;59.958;17.726;2023-06-22T05:15:26;19.80;99.90
10431;DHT22;5262;59.958;17.726;2023-06-22T05:17:56;20.20;99.90
10431;DHT22;5262;59.958;17.726;2023-06-22T05:20:21;20.10;99.90
10431;DHT22;5262;59.958;17.726;2023-06-22T05:22:47;20.00;99.90
10431;DHT22;5262;59.958;17.726;2023-06-22T05:25:13;20.10;99.90
10431;DHT22;5262;59.958;17.726;2023-06-22T05:27:38;20.00;99.90
10431;DHT22;5262;59.958;17.726;2023-06-22T05:30:08;20.20;99.90
10431;DHT22;5262;59.958;17.726;2023-06-22T05:32:34;20.10;99.90
10431;DHT22;5262;59.958;17.726;2023-06-22T05:35:00;20.20;99.90
10431;DHT22;5262;59.958;17.726;2023-06-22T05:37:25;20.20;99.90
10431;DHT22;5262;59.958;17.726;2023-06-22T05:39:51;20.10;99.90
10431;DHT22;5262;59.958;17.726;2023-06-22T05:42:17;20.20;99.90
10431;DHT22;5262;59.958;17.726;2023-06-22T05:44:43;20.20;99.90
10431;DHT22;5262;59.958;17.726;2023-06-22T05:47:08;20.40;99.90
10431;DHT22;5262;59.958;17.726;2023-06-22T05:49:34;20.70;99.90
10431;DHT22;5262;59.958;17.726;2023-06-22T05:52:00;20.50;99.90
10431;DHT22;5262;59.958;17.726;2023-06-22T05:54:27;20.40;99.90
10431;DHT22;5262;59.958;17.726;2023-06-22T05:56:53;20.60;99.90
10431;DHT22;5262;59.958;17.726;2023-06-22T05:59:19;20.50;99.90
10431;DHT22;5262;59.958;17.726;2023-06-22T06:01:44;20.30;99.90
10431;DHT22;5262;59.958;17.726;2023-06-22T06:04:10;20.10;99.90
10431;DHT22;5262;59.958;17.726;2023-06-22T06:06:36;20.00;99.90
10431;DHT22;5262;59.958;17.726;2023-06-22T06:09:05;19.80;99.90
10431;DHT22;5262;59.958;17.726;2023-06-22T06:11:33;19.60;99.90
10431;DHT22;5262;59.958;17.726;2023-06-22T06:13:59;19.60;99.90
10431;DHT22;5262;59.958;17.726;2023-06-22T06:16:24;19.60;99.90
10431;DHT22;5262;59.958;17.726;2023-06-22T06:18:50;19.60;99.90
10431;DHT22;5262;59.958;17.726;2023-06-22T06:21:16;19.50;99.90
10431;DHT22;5262;59.958;17.726;2023-06-22T06:23:42;19.50;99.90
10431;DHT22;5262;59.958;17.726;2023-06-22T06:26:08;19.40;99.90
10431;DHT22;5262;59.958;17.726;2023-06-22T06:28:34;19.30;99.90
10431;DHT22;5262;59.958;17.726;2023-06-22T06:31:00;19.50;99.90
10431;DHT22;5262;59.958;17.726;2023-06-22T06:33:26;19.60;99.90
10431;DHT22;5262;59.958;17.726;2023-06-22T06:35:51;19.70;99.90
10431;DHT22;5262;59.958;17.726;2023-06-22T06:38:17;19.90;99.90
10431;DHT22;5262;59.958;17.726;2023-06-22T06:40:43;20.20;99.90
10431;DHT22;5262;59.958;17.726;2023-06-22T06:43:10;20.40;99.90
10431;DHT22;5262;59.958;17.726;2023-06-22T06:45:36;20.50;99.90
10431;DHT22;5262;59.958;17.726;2023-06-22T06:48:01;20.70;99.90
10431;DHT22;5262;59.958;17.726;2023-06-22T06:50:27;20.70;99.90
10431;DHT22;5262;59.958;17.726;2023-06-22T06:52:53;20.60;99.90
10431;DHT22;5262;59.958;17.726;2023-06-22T06:55:19;20.70;99.90
10431;DHT22;5262;59.958;17.726;2023-06-22T06:57:46;20.70;99.90
10431;DHT22;5262;59.958;17.726;2023-06-22T07:00:14;20.70;99.90
10431;DHT22;5262;59.958;17.726;2023-06-22T07:02:42;20.80;99.90
10431;DHT22;5262;59.958;17.726;2023-06-22T07:05:09;20.90;99.90
10431;DHT22;5262;59.958;17.726;2023-06-22T07:07:35;21.30;99.90
10431;DHT22;5262;59.958;17.726;2023-06-22T07:10:01;22.20;99.90
10431;DHT22;5262;59.958;17.726;2023-06-22T07:12:27;23.20;99.90
10431;DHT22;5262;59.958;17.726;2023-06-22T07:14:53;24.50;99.90
10431;DHT22;5262;59.958;17.726;2023-06-22T07:17:19;25.30;99.90
10431;DHT22;5262;59.958;17.726;2023-06-22T07:19:44;26.00;99.90
10431;DHT22;5262;59.958;17.726;2023-06-22T07:22:10;26.30;98.70
10431;DHT22;5262;59.958;17.726;2023-06-22T07:24:36;26.80;96.70
10431;DHT22;5262;59.958;17.726;2023-06-22T07:27:03;26.30;96.30
10431;DHT22;5262;59.958;17.726;2023-06-22T07:29:29;26.60;95.20
10431;DHT22;5262;59.958;17.726;2023-06-22T07:31:55;26.90;94.30
10431;DHT22;5262;59.958;17.726;2023-06-22T07:34:22;25.70;95.50
10431;DHT22;5262;59.958;17.726;2023-06-22T07:36:48;24.30;97.20
10431;DHT22;5262;59.958;17.726;2023-06-22T07:39:13;23.40;98.30
10431;DHT22;5262;59.958;17.726;2023-06-22T07:41:40;23.00;99.70
10431;DHT22;5262;59.958;17.726;2023-06-22T07:44:08;22.70;99.90
10431;DHT22;5262;59.958;17.726;2023-06-22T07:46:34;22.20;99.90
10431;DHT22;5262;59.958;17.726;2023-06-22T07:49:00;21.80;99.90
10431;DHT22;5262;59.958;17.726;2023-06-22T07:51:26;21.80;99.90
10431;DHT22;5262;59.958;17.726;2023-06-22T07:53:52;21.60;99.90
10431;DHT22;5262;59.958;17.726;2023-06-22T07:56:18;21.40;99.90
10431;DHT22;5262;59.958;17.726;2023-06-22T07:58:47;21.50;99.90
10431;DHT22;5262;59.958;17.726;2023-06-22T08:01:14;21.70;99.90
10431;DHT22;5262;59.958;17.726;2023-06-22T08:03:40;21.70;99.90
10431;DHT22;5262;59.958;17.726;2023-06-22T08:06:06;22.20;99.90
10431;DHT22;5262;59.958;17.726;2023-06-22T08:08:34;22.20;99.90
10431;DHT22;5262;59.958;17.726;2023-06-22T08:11:00;22.10;99.90
10431;DHT22;5262;59.958;17.726;2023-06-22T08:13:26;22.00;99.90
10431;DHT22;5262;59.958;17.726;2023-06-22T08:15:51;22.10;99.90
10431;DHT22;5262;59.958;17.726;2023-06-22T08:18:17;22.10;99.90
10431;DHT22;5262;59.958;17.726;2023-06-22T08:20:42;22.00;99.90
10431;DHT22;5262;59.958;17.726;2023-06-22T08:23:08;22.10;99.90
10431;DHT22;5262;59.958;17.726;2023-06-22T08:25:34;23.10;99.90
10431;DHT22;5262;59.958;17.726;2023-06-22T08:28:01;24.30;99.90
10431;DHT22;5262;59.958;17.726;2023-06-22T08:30:27;24.70;99.30
10431;DHT22;5262;59.958;17.726;2023-06-22T08:32:53;25.20;98.50
10431;DHT22;5262;59.958;17.726;2023-06-22T08:35:23;25.10;98.10
10431;DHT22;5262;59.958;17.726;2023-06-22T08:37:49;25.00;99.10
10431;DHT22;5262;59.958;17.726;2023-06-22T08:40:18;24.90;99.20
10431;DHT22;5262;59.958;17.726;2023-06-22T08:42:45;25.40;98.80
10431;DHT22;5262;59.958;17.726;2023-06-22T08:45:11;25.50;97.60
10431;DHT22;5262;59.958;17.726;2023-06-22T08:47:37;25.30;97.90
10431;DHT22;5262;59.958;17.726;2023-06-22T08:50:03;24.70;98.30
10431;DHT22;5262;59.958;17.726;2023-06-22T08:52:29;24.30;98.00
10431;DHT22;5262;59.958;17.726;2023-06-22T08:54:55;24.30;98.60
10431;DHT22;5262;59.958;17.726;2023-06-22T08:57:21;24.20;98.60
10431;DHT22;5262;59.958;17.726;2023-06-22T08:59:47;25.60;96.70
10431;DHT22;5262;59.958;17.726;2023-06-22T09:02:13;25.60;96.00
10431;DHT22;5262;59.958;17.726;2023-06-22T09:04:38;25.90;95.20
10431;DHT22;5262;59.958;17.726;2023-06-22T09:07:04;27.10;93.40
10431;DHT22;5262;59.958;17.726;2023-06-22T09:09:30;28.30;91.40
10431;DHT22;5262;59.958;17.726;2023-06-22T09:11:56;28.90;88.40
10431;DHT22;5262;59.958;17.726;2023-06-22T09:14:21;28.80;88.20
10431;DHT22;5262;59.958;17.726;2023-06-22T09:16:47;28.40;85.80
10431;DHT22;5262;59.958;17.726;2023-06-22T09:19:13;26.70;89.90
10431;DHT22;5262;59.958;17.726;2023-06-22T09:21:38;26.60;91.50
10431;DHT22;5262;59.958;17.726;2023-06-22T09:24:04;27.80;88.20
10431;DHT22;5262;59.958;17.726;2023-06-22T09:26:30;28.80;85.50
10431;DHT22;5262;59.958;17.726;2023-06-22T09:28:57;30.10;80.30
10431;DHT22;5262;59.958;17.726;2023-06-22T09:31:23;29.00;76.00
10431;DHT22;5262;59.958;17.726;2023-06-22T09:33:54;27.90;76.70
10431;DHT22;5262;59.958;17.726;2023-06-22T09:36:23;26.80;78.90
10431;DHT22;5262;59.958;17.726;2023-06-22T09:38:49;27.50;79.50
10431;DHT22;5262;59.958;17.726;2023-06-22T09:41:21;27.30;79.00
10431;DHT22;5262;59.958;17.726;2023-06-22T09:43:47;28.40;77.90
10431;DHT22;5262;59.958;17.726;2023-06-22T09:46:16;28.80;76.40
10431;DHT22;5262;59.958;17.726;2023-06-22T09:48:42;29.40;74.50
10431;DHT22;5262;59.958;17.726;2023-06-22T09:51:08;28.90;73.40
10431;DHT22;5262;59.958;17.726;2023-06-22T09:53:34;28.90;73.20
10431;DHT22;5262;59.958;17.726;2023-06-22T09:56:03;29.40;71.10
10431;DHT22;5262;59.958;17.726;2023-06-22T09:58:29;29.00;68.00
10431;DHT22;5262;59.958;17.726;2023-06-22T10:00:54;28.50;68.40
10431;DHT22;5262;59.958;17.726;2023-06-22T10:03:20;28.30;70.30
10431;DHT22;5262;59.958;17.726;2023-06-22T10:05:46;28.70;73.30
10431;DHT22;5262;59.958;17.726;2023-06-22T10:08:12;29.20;70.70
10431;DHT22;5262;59.958;17.726;2023-06-22T10:10:37;28.20;69.40
10431;DHT22;5262;59.958;17.726;2023-06-22T10:13:08;27.10;71.80
10431;DHT22;5262;59.958;17.726;2023-06-22T10:15:35;26.90;75.20
10431;DHT22;5262;59.958;17.726;2023-06-22T10:18:01;27.20;74.00
10431;DHT22;5262;59.958;17.726;2023-06-22T10:20:26;28.30;72.70
10431;DHT22;5262;59.958;17.726;2023-06-22T10:22:53;29.60;69.10
10431;DHT22;5262;59.958;17.726;2023-06-22T10:25:19;30.50;65.80
10431;DHT22;5262;59.958;17.726;2023-06-22T10:27:45;30.20;63.50
10431;DHT22;5262;59.958;17.726;2023-06-22T10:30:12;31.40;64.70
10431;DHT22;5262;59.958;17.726;2023-06-22T10:32:38;30.90;60.70
10431;DHT22;5262;59.958;17.726;2023-06-22T10:35:05;30.10;60.70
10431;DHT22;5262;59.958;17.726;2023-06-22T10:37:31;30.50;61.90
10431;DHT22;5262;59.958;17.726;2023-06-22T10:39:56;30.10;61.90
10431;DHT22;5262;59.958;17.726;2023-06-22T10:42:22;30.30;61.60
10431;DHT22;5262;59.958;17.726;2023-06-22T10:44:50;30.50;61.10
10431;DHT22;5262;59.958;17.726;2023-06-22T10:47:16;29.80;61.80
10431;DHT22;5262;59.958;17.726;2023-06-22T10:49:41;30.40;60.90
10431;DHT22;5262;59.958;17.726;2023-06-22T10:52:08;31.20;60.10
10431;DHT22;5262;59.958;17.726;2023-06-22T10:54:34;31.60;60.80
10431;DHT22;5262;59.958;17.726;2023-06-22T10:57:01;32.70;56.40
10431;DHT22;5262;59.958;17.726;2023-06-22T10:59:27;32.50;55.90
10431;DHT22;5262;59.958;17.726;2023-06-22T11:01:54;30.90;57.70
10431;DHT22;5262;59.958;17.726;2023-06-22T11:04:20;30.50;58.70
10431;DHT22;5262;59.958;17.726;2023-06-22T11:06:47;30.30;58.40
10431;DHT22;5262;59.958;17.726;2023-06-22T11:09:12;30.20;57.60
10431;DHT22;5262;59.958;17.726;2023-06-22T11:11:44;29.70;58.80
10431;DHT22;5262;59.958;17.726;2023-06-22T11:14:09;30.10;58.50
10431;DHT22;5262;59.958;17.726;2023-06-22T11:16:35;30.20;56.00
10431;DHT22;5262;59.958;17.726;2023-06-22T11:19:00;30.30;57.40
10431;DHT22;5262;59.958;17.726;2023-06-22T11:21:26;30.60;55.20
10431;DHT22;5262;59.958;17.726;2023-06-22T11:23:52;30.70;55.30
10431;DHT22;5262;59.958;17.726;2023-06-22T11:26:17;30.80;55.80
10431;DHT22;5262;59.958;17.726;2023-06-22T11:28:43;30.20;53.20
10431;DHT22;5262;59.958;17.726;2023-06-22T11:31:09;29.80;55.60
10431;DHT22;5262;59.958;17.726;2023-06-22T11:33:34;29.80;56.10
10431;DHT22;5262;59.958;17.726;2023-06-22T11:36:00;30.00;55.00
10431;DHT22;5262;59.958;17.726;2023-06-22T11:38:26;29.60;54.40
10431;DHT22;5262;59.958;17.726;2023-06-22T11:40:51;29.20;55.60
10431;DHT22;5262;59.958;17.726;2023-06-22T11:43:17;28.80;57.30
10431;DHT22;5262;59.958;17.726;2023-06-22T11:45:42;28.60;57.90
10431;DHT22;5262;59.958;17.726;2023-06-22T11:48:08;29.00;54.60
10431;DHT22;5262;59.958;17.726;2023-06-22T11:50:34;29.20;55.10
10431;DHT22;5262;59.958;17.726;2023-06-22T11:53:03;29.60;55.40
10431;DHT22;5262;59.958;17.726;2023-06-22T11:55:30;29.50;54.40
10431;DHT22;5262;59.958;17.726;2023-06-22T11:57:57;28.90;54.80
10431;DHT22;5262;59.958;17.726;2023-06-22T12:00:25;28.70;54.40
10431;DHT22;5262;59.958;17.726;2023-06-22T12:02:51;28.80;56.70
10431;DHT22;5262;59.958;17.726;2023-06-22T12:05:20;29.40;55.10
10431;DHT22;5262;59.958;17.726;2023-06-22T12:07:50;29.50;54.90
10431;DHT22;5262;59.958;17.726;2023-06-22T12:10:15;29.20;55.00
10431;DHT22;5262;59.958;17.726;2023-06-22T12:12:41;29.80;54.40
10431;DHT22;5262;59.958;17.726;2023-06-22T12:15:09;30.00;54.30
10431;DHT22;5262;59.958;17.726;2023-06-22T12:17:34;29.20;54.10
10431;DHT22;5262;59.958;17.726;2023-06-22T12:20:00;29.10;54.70
10431;DHT22;5262;59.958;17.726;2023-06-22T12:22:27;29.90;55.40
10431;DHT22;5262;59.958;17.726;2023-06-22T12:24:52;29.20;55.00
10431;DHT22;5262;59.958;17.726;2023-06-22T12:27:18;29.20;54.80
10431;DHT22;5262;59.958;17.726;2023-06-22T12:29:47;29.60;55.50
10431;DHT22;5262;59.958;17.726;2023-06-22T12:32:13;29.30;55.20
10431;DHT22;5262;59.958;17.726;2023-06-22T12:34:39;29.30;53.90
10431;DHT22;5262;59.958;17.726;2023-06-22T12:37:05;29.80;54.30
10431;DHT22;5262;59.958;17.726;2023-06-22T12:39:34;30.10;52.90
10431;DHT22;5262;59.958;17.726;2023-06-22T12:42:00;29.30;52.40
10431;DHT22;5262;59.958;17.726;2023-06-22T12:44:26;28.60;54.30
10431;DHT22;5262;59.958;17.726;2023-06-22T12:46:52;28.30;54.60
10431;DHT22;5262;59.958;17.726;2023-06-22T12:49:18;28.50;55.30
10431;DHT22;5262;59.958;17.726;2023-06-22T12:51:45;28.20;55.20
10431;DHT22;5262;59.958;17.726;2023-06-22T12:54:11;28.50;55.30
10431;DHT22;5262;59.958;17.726;2023-06-22T12:56:37;28.30;54.60
10431;DHT22;5262;59.958;17.726;2023-06-22T12:59:04;28.20;55.30
10431;DHT22;5262;59.958;17.726;2023-06-22T13:01:30;28.30;54.40
10431;DHT22;5262;59.958;17.726;2023-06-22T13:04:00;28.10;54.50
10431;DHT22;5262;59.958;17.726;2023-06-22T13:06:26;28.50;54.60
10431;DHT22;5262;59.958;17.726;2023-06-22T13:08:51;28.50;54.50
10431;DHT22;5262;59.958;17.726;2023-06-22T13:11:17;28.60;54.40
10431;DHT22;5262;59.958;17.726;2023-06-22T13:13:44;28.90;53.90
10431;DHT22;5262;59.958;17.726;2023-06-22T13:16:10;28.70;54.70
10431;DHT22;5262;59.958;17.726;2023-06-22T13:18:35;28.70;54.50
10431;DHT22;5262;59.958;17.726;2023-06-22T13:21:02;28.30;53.10
10431;DHT22;5262;59.958;17.726;2023-06-22T13:23:28;28.30;54.60
10431;DHT22;5262;59.958;17.726;2023-06-22T13:25:53;28.60;54.60
10431;DHT22;5262;59.958;17.726;2023-06-22T13:28:19;28.90;53.40
10431;DHT22;5262;59.958;17.726;2023-06-22T13:30:46;28.40;52.60
10431;DHT22;5262;59.958;17.726;2023-06-22T13:33:13;28.20;53.10
10431;DHT22;5262;59.958;17.726;2023-06-22T13:35:39;27.90;53.50
10431;DHT22;5262;59.958;17.726;2023-06-22T13:38:05;27.40;53.30
10431;DHT22;5262;59.958;17.726;2023-06-22T13:40:31;27.20;54.50
10431;DHT22;5262;59.958;17.726;2023-06-22T13:42:57;27.30;54.00
10431;DHT22;5262;59.958;17.726;2023-06-22T13:45:22;27.90;54.20
10431;DHT22;5262;59.958;17.726;2023-06-22T13:47:48;28.30;52.00
10431;DHT22;5262;59.958;17.726;2023-06-22T13:50:14;27.90;52.20
10431;DHT22;5262;59.958;17.726;2023-06-22T13:52:40;27.40;52.70
10431;DHT22;5262;59.958;17.726;2023-06-22T13:55:06;27.10;54.00
10431;DHT22;5262;59.958;17.726;2023-06-22T13:57:33;27.70;52.90
10431;DHT22;5262;59.958;17.726;2023-06-22T13:59:59;27.90;53.00
10431;DHT22;5262;59.958;17.726;2023-06-22T14:02:26;28.20;54.00
10431;DHT22;5262;59.958;17.726;2023-06-22T14:04:53;28.70;52.10
10431;DHT22;5262;59.958;17.726;2023-06-22T14:07:19;28.50;50.30
10431;DHT22;5262;59.958;17.726;2023-06-22T14:09:46;28.40;49.90
10431;DHT22;5262;59.958;17.726;2023-06-22T14:12:12;28.40;51.00
10431;DHT22;5262;59.958;17.726;2023-06-22T14:14:38;28.20;51.30
10431;DHT22;5262;59.958;17.726;2023-06-22T14:17:04;28.20;51.00
10431;DHT22;5262;59.958;17.726;2023-06-22T14:19:30;28.10;50.70
10431;DHT22;5262;59.958;17.726;2023-06-22T14:21:56;28.30;50.70
10431;DHT22;5262;59.958;17.726;2023-06-22T14:24:24;28.20;49.90
10431;DHT22;5262;59.958;17.726;2023-06-22T14:26:50;28.20;51.10
10431;DHT22;5262;59.958;17.726;2023-06-22T14:29:16;28.40;51.10
10431;DHT22;5262;59.958;17.726;2023-06-22T14:31:44;28.70;53.40
10431;DHT22;5262;59.958;17.726;2023-06-22T14:34:10;28.90;51.00
10431;DHT22;5262;59.958;17.726;2023-06-22T14:36:36;28.70;49.90
10431;DHT22;5262;59.958;17.726;2023-06-22T14:39:01;28.50;50.90
10431;DHT22;5262;59.958;17.726;2023-06-22T14:41:27;28.50;49.70
10431;DHT22;5262;59.958;17.726;2023-06-22T14:43:53;28.30;49.90
10431;DHT22;5262;59.958;17.726;2023-06-22T14:46:19;28.20;50.10
10431;DHT22;5262;59.958;17.726;2023-06-22T14:48:45;28.40;49.80
10431;DHT22;5262;59.958;17.726;2023-06-22T14:51:12;28.40;49.10
10431;DHT22;5262;59.958;17.726;2023-06-22T14:53:37;28.40;49.10
10431;DHT22;5262;59.958;17.726;2023-06-22T14:56:03;28.60;50.00
10431;DHT22;5262;59.958;17.726;2023-06-22T14:58:30;28.60;49.40
10431;DHT22;5262;59.958;17.726;2023-06-22T15:00:59;28.40;49.50
10431;DHT22;5262;59.958;17.726;2023-06-22T15:03:25;28.50;50.10
10431;DHT22;5262;59.958;17.726;2023-06-22T15:05:54;28.40;49.00
10431;DHT22;5262;59.958;17.726;2023-06-22T15:08:20;28.70;50.30
10431;DHT22;5262;59.958;17.726;2023-06-22T15:10:46;28.80;48.70
10431;DHT22;5262;59.958;17.726;2023-06-22T15:13:12;28.30;48.40
10431;DHT22;5262;59.958;17.726;2023-06-22T15:15:37;28.30;48.60
10431;DHT22;5262;59.958;17.726;2023-06-22T15:18:03;28.40;48.60
10431;DHT22;5262;59.958;17.726;2023-06-22T15:20:30;28.40;48.40
10431;DHT22;5262;59.958;17.726;2023-06-22T15:22:57;28.40;50.40
10431;DHT22;5262;59.958;17.726;2023-06-22T15:25:22;28.40;50.10
10431;DHT22;5262;59.958;17.726;2023-06-22T15:27:48;28.30;49.50
10431;DHT22;5262;59.958;17.726;2023-06-22T15:30:14;28.30;50.40
10431;DHT22;5262;59.958;17.726;2023-06-22T15:32:45;28.40;50.00
10431;DHT22;5262;59.958;17.726;2023-06-22T15:35:12;28.50;50.50